sensor_id;sensor_type;location;lat;lon;timestamp;P1;durP1;ratioP1;P2;durP2;ratioP2
7845;SDS011;3968;51.424;6.788;2022-09-17T00:00:46;10.17;;;2.27;;
7845;SDS011;3968;51.424;6.788;2022-09-17T00:03:13;8.67;;;2.13;;
7845;SDS011;3968;51.424;6.788;2022-09-17T00:05:39;7.73;;;2.17;;
7845;SDS011;3968;51.424;6.788;2022-09-17T00:08:06;6.13;;;2.07;;
7845;SDS011;3968;51.424;6.788;2022-09-17T00:10:37;9.97;;;2.73;;
7845;SDS011;3968;51.424;6.788;2022-09-17T00:13:04;6.00;;;2.23;;
7845;SDS011;3968;51.424;6.788;2022-09-17T00:15:31;8.30;;;2.83;;
7845;SDS011;3968;51.424;6.788;2022-09-17T00:17:57;9.13;;;2.83;;
7845;SDS011;3968;51.424;6.788;2022-09-17T00:20:26;10.10;;;3.27;;
7845;SDS011;3968;51.424;6.788;2022-09-17T00:22:52;8.07;;;2.53;;
7845;SDS011;3968;51.424;6.788;2022-09-17T00:25:18;7.97;;;2.47;;
7845;SDS011;3968;51.424;6.788;2022-09-17T00:27:44;12.83;;;3.30;;
7845;SDS011;3968;51.424;6.788;2022-09-17T00:30:10;15.53;;;3.70;;
7845;SDS011;3968;51.424;6.788;2022-09-17T00:32:36;7.90;;;2.43;;
7845;SDS011;3968;51.424;6.788;2022-09-17T00:35:02;10.97;;;2.63;;
7845;SDS011;3968;51.424;6.788;2022-09-17T00:37:28;8.90;;;3.23;;
7845;SDS011;3968;51.424;6.788;2022-09-17T00:39:53;11.97;;;3.43;;
7845;SDS011;3968;51.424;6.788;2022-09-17T00:42:19;11.57;;;3.27;;
7845;SDS011;3968;51.424;6.788;2022-09-17T00:44:50;11.57;;;2.93;;
7845;SDS011;3968;51.424;6.788;2022-09-17T00:47:23;7.87;;;2.20;;
7845;SDS011;3968;51.424;6.788;2022-09-17T00:49:50;10.73;;;2.77;;
7845;SDS011;3968;51.424;6.788;2022-09-17T00:52:23;12.60;;;2.50;;
7845;SDS011;3968;51.424;6.788;2022-09-17T00:54:55;10.60;;;2.20;;
7845;SDS011;3968;51.424;6.788;2022-09-17T00:57:25;9.80;;;2.57;;
7845;SDS011;3968;51.424;6.788;2022-09-17T00:59:51;10.30;;;3.00;;
7845;SDS011;3968;51.424;6.788;2022-09-17T01:02:16;11.60;;;3.50;;
7845;SDS011;3968;51.424;6.788;2022-09-17T01:04:43;12.10;;;2.70;;
7845;SDS011;3968;51.424;6.788;2022-09-17T01:07:22;9.30;;;2.70;;
7845;SDS011;3968;51.424;6.788;2022-09-17T01:09:58;11.60;;;3.50;;
7845;SDS011;3968;51.424;6.788;2022-09-17T01:12:38;12.77;;;3.97;;
7845;SDS011;3968;51.424;6.788;2022-09-17T01:35:18;28.17;;;9.53;;
7845;SDS011;3968;51.424;6.788;2022-09-17T01:40:44;19.27;;;5.90;;
7845;SDS011;3968;51.424;6.788;2022-09-17T01:43:22;18.37;;;5.00;;
7845;SDS011;3968;51.424;6.788;2022-09-17T01:45:51;18.10;;;5.30;;
7845;SDS011;3968;51.424;6.788;2022-09-17T01:48:32;21.37;;;7.37;;
7845;SDS011;3968;51.424;6.788;2022-09-17T01:51:10;29.07;;;8.53;;
7845;SDS011;3968;51.424;6.788;2022-09-17T01:53:42;37.63;;;10.17;;
7845;SDS011;3968;51.424;6.788;2022-09-17T01:56:13;30.00;;;7.87;;
7845;SDS011;3968;51.424;6.788;2022-09-17T01:58:43;29.57;;;6.53;;
7845;SDS011;3968;51.424;6.788;2022-09-17T02:01:18;20.77;;;6.00;;
7845;SDS011;3968;51.424;6.788;2022-09-17T02:03:51;22.13;;;5.60;;
7845;SDS011;3968;51.424;6.788;2022-09-17T02:06:24;15.47;;;4.30;;
7845;SDS011;3968;51.424;6.788;2022-09-17T02:08:56;12.77;;;4.10;;
7845;SDS011;3968;51.424;6.788;2022-09-17T02:11:29;12.60;;;3.53;;
7845;SDS011;3968;51.424;6.788;2022-09-17T02:14:07;12.73;;;3.73;;
7845;SDS011;3968;51.424;6.788;2022-09-17T02:16:44;13.80;;;2.73;;
7845;SDS011;3968;51.424;6.788;2022-09-17T02:19:18;9.27;;;3.07;;
7845;SDS011;3968;51.424;6.788;2022-09-17T02:24:24;10.83;;;3.23;;
7845;SDS011;3968;51.424;6.788;2022-09-17T02:27:03;18.67;;;3.83;;
7845;SDS011;3968;51.424;6.788;2022-09-17T02:29:50;15.30;;;3.27;;
7845;SDS011;3968;51.424;6.788;2022-09-17T02:32:15;17.03;;;3.63;;
7845;SDS011;3968;51.424;6.788;2022-09-17T02:34:41;21.73;;;4.10;;
7845;SDS011;3968;51.424;6.788;2022-09-17T02:37:07;11.43;;;3.33;;
7845;SDS011;3968;51.424;6.788;2022-09-17T02:39:33;12.93;;;3.30;;
7845;SDS011;3968;51.424;6.788;2022-09-17T02:56:00;14.47;;;3.57;;
7845;SDS011;3968;51.424;6.788;2022-09-17T03:01:22;14.53;;;2.80;;
7845;SDS011;3968;51.424;6.788;2022-09-17T03:03:53;14.37;;;3.03;;
7845;SDS011;3968;51.424;6.788;2022-09-17T03:06:24;8.90;;;2.37;;
7845;SDS011;3968;51.424;6.788;2022-09-17T03:08:50;16.47;;;2.87;;
7845;SDS011;3968;51.424;6.788;2022-09-17T03:11:16;11.63;;;3.20;;
7845;SDS011;3968;51.424;6.788;2022-09-17T03:13:42;12.87;;;2.80;;
7845;SDS011;3968;51.424;6.788;2022-09-17T03:16:08;11.53;;;2.90;;
7845;SDS011;3968;51.424;6.788;2022-09-17T03:18:33;11.67;;;3.30;;
7845;SDS011;3968;51.424;6.788;2022-09-17T03:20:59;11.67;;;2.80;;
7845;SDS011;3968;51.424;6.788;2022-09-17T03:23:25;12.57;;;3.03;;
7845;SDS011;3968;51.424;6.788;2022-09-17T03:25:52;10.03;;;2.70;;
7845;SDS011;3968;51.424;6.788;2022-09-17T03:28:17;15.67;;;2.43;;
7845;SDS011;3968;51.424;6.788;2022-09-17T03:30:43;14.93;;;3.60;;
7845;SDS011;3968;51.424;6.788;2022-09-17T03:33:09;13.30;;;3.20;;
7845;SDS011;3968;51.424;6.788;2022-09-17T03:35:35;14.73;;;3.20;;
7845;SDS011;3968;51.424;6.788;2022-09-17T03:38:01;13.93;;;3.53;;
7845;SDS011;3968;51.424;6.788;2022-09-17T03:40:27;15.37;;;3.47;;
7845;SDS011;3968;51.424;6.788;2022-09-17T03:42:52;11.03;;;3.60;;
7845;SDS011;3968;51.424;6.788;2022-09-17T03:45:18;14.03;;;3.20;;
7845;SDS011;3968;51.424;6.788;2022-09-17T03:47:43;13.40;;;2.73;;
7845;SDS011;3968;51.424;6.788;2022-09-17T03:50:09;10.67;;;2.90;;
7845;SDS011;3968;51.424;6.788;2022-09-17T03:52:35;11.03;;;3.13;;
7845;SDS011;3968;51.424;6.788;2022-09-17T03:55:01;11.00;;;2.80;;
7845;SDS011;3968;51.424;6.788;2022-09-17T03:57:27;11.67;;;2.53;;
7845;SDS011;3968;51.424;6.788;2022-09-17T03:59:53;8.77;;;2.87;;
7845;SDS011;3968;51.424;6.788;2022-09-17T04:02:18;16.97;;;2.53;;
7845;SDS011;3968;51.424;6.788;2022-09-17T04:04:44;10.37;;;2.40;;
7845;SDS011;3968;51.424;6.788;2022-09-17T04:07:10;8.07;;;2.60;;
7845;SDS011;3968;51.424;6.788;2022-09-17T04:09:35;13.97;;;2.50;;
7845;SDS011;3968;51.424;6.788;2022-09-17T04:12:01;11.03;;;2.90;;
7845;SDS011;3968;51.424;6.788;2022-09-17T04:14:27;11.00;;;2.33;;
7845;SDS011;3968;51.424;6.788;2022-09-17T04:16:53;9.30;;;2.60;;
7845;SDS011;3968;51.424;6.788;2022-09-17T04:19:18;10.90;;;2.63;;
7845;SDS011;3968;51.424;6.788;2022-09-17T04:21:44;11.57;;;3.43;;
7845;SDS011;3968;51.424;6.788;2022-09-17T04:24:09;24.87;;;6.87;;
7845;SDS011;3968;51.424;6.788;2022-09-17T04:26:35;21.17;;;4.80;;
7845;SDS011;3968;51.424;6.788;2022-09-17T04:29:00;14.37;;;3.30;;
7845;SDS011;3968;51.424;6.788;2022-09-17T04:31:26;10.40;;;2.90;;
7845;SDS011;3968;51.424;6.788;2022-09-17T04:33:52;12.20;;;2.50;;
7845;SDS011;3968;51.424;6.788;2022-09-17T04:36:17;14.83;;;2.67;;
7845;SDS011;3968;51.424;6.788;2022-09-17T04:38:43;7.30;;;2.43;;
7845;SDS011;3968;51.424;6.788;2022-09-17T04:41:12;14.33;;;2.77;;
7845;SDS011;3968;51.424;6.788;2022-09-17T04:43:37;14.13;;;2.73;;
7845;SDS011;3968;51.424;6.788;2022-09-17T04:46:03;12.57;;;3.13;;
7845;SDS011;3968;51.424;6.788;2022-09-17T04:48:29;8.67;;;2.60;;
7845;SDS011;3968;51.424;6.788;2022-09-17T04:50:54;10.33;;;2.30;;
7845;SDS011;3968;51.424;6.788;2022-09-17T04:53:20;12.23;;;2.70;;
7845;SDS011;3968;51.424;6.788;2022-09-17T04:55:46;12.13;;;2.97;;
7845;SDS011;3968;51.424;6.788;2022-09-17T04:58:11;14.93;;;3.00;;
7845;SDS011;3968;51.424;6.788;2022-09-17T05:00:37;16.07;;;4.10;;
7845;SDS011;3968;51.424;6.788;2022-09-17T05:03:03;15.17;;;3.30;;
7845;SDS011;3968;51.424;6.788;2022-09-17T05:05:28;12.60;;;3.27;;
7845;SDS011;3968;51.424;6.788;2022-09-17T05:07:54;9.07;;;3.60;;
7845;SDS011;3968;51.424;6.788;2022-09-17T05:10:20;15.20;;;3.00;;
7845;SDS011;3968;51.424;6.788;2022-09-17T05:12:47;20.60;;;3.20;;
7845;SDS011;3968;51.424;6.788;2022-09-17T05:15:14;12.80;;;3.23;;
7845;SDS011;3968;51.424;6.788;2022-09-17T05:17:40;20.87;;;4.47;;
7845;SDS011;3968;51.424;6.788;2022-09-17T05:20:06;13.20;;;3.57;;
7845;SDS011;3968;51.424;6.788;2022-09-17T05:22:32;14.67;;;3.63;;
7845;SDS011;3968;51.424;6.788;2022-09-17T05:24:58;12.00;;;3.10;;
7845;SDS011;3968;51.424;6.788;2022-09-17T05:27:23;12.10;;;3.00;;
7845;SDS011;3968;51.424;6.788;2022-09-17T05:29:49;10.83;;;2.97;;
7845;SDS011;3968;51.424;6.788;2022-09-17T05:32:14;10.33;;;2.60;;
7845;SDS011;3968;51.424;6.788;2022-09-17T05:34:40;17.33;;;3.47;;
7845;SDS011;3968;51.424;6.788;2022-09-17T05:37:08;12.67;;;3.43;;
7845;SDS011;3968;51.424;6.788;2022-09-17T05:39:34;11.90;;;2.77;;
7845;SDS011;3968;51.424;6.788;2022-09-17T05:42:00;11.03;;;3.30;;
7845;SDS011;3968;51.424;6.788;2022-09-17T05:44:26;11.43;;;2.47;;
7845;SDS011;3968;51.424;6.788;2022-09-17T05:46:53;13.50;;;2.53;;
7845;SDS011;3968;51.424;6.788;2022-09-17T05:49:18;13.27;;;2.90;;
7845;SDS011;3968;51.424;6.788;2022-09-17T05:51:44;9.43;;;2.83;;
7845;SDS011;3968;51.424;6.788;2022-09-17T05:54:10;13.33;;;3.10;;
7845;SDS011;3968;51.424;6.788;2022-09-17T05:56:35;13.63;;;2.60;;
7845;SDS011;3968;51.424;6.788;2022-09-17T05:59:01;13.53;;;2.57;;
7845;SDS011;3968;51.424;6.788;2022-09-17T06:01:26;17.20;;;3.10;;
7845;SDS011;3968;51.424;6.788;2022-09-17T06:03:52;13.40;;;3.23;;
7845;SDS011;3968;51.424;6.788;2022-09-17T06:06:18;7.23;;;2.87;;
7845;SDS011;3968;51.424;6.788;2022-09-17T06:08:44;19.07;;;3.27;;
7845;SDS011;3968;51.424;6.788;2022-09-17T06:11:09;10.87;;;3.17;;
7845;SDS011;3968;51.424;6.788;2022-09-17T06:13:35;11.97;;;3.43;;
7845;SDS011;3968;51.424;6.788;2022-09-17T06:16:01;10.20;;;2.90;;
7845;SDS011;3968;51.424;6.788;2022-09-17T06:18:28;14.60;;;3.60;;
7845;SDS011;3968;51.424;6.788;2022-09-17T06:20:55;8.23;;;2.40;;
7845;SDS011;3968;51.424;6.788;2022-09-17T06:23:22;14.73;;;3.73;;
7845;SDS011;3968;51.424;6.788;2022-09-17T06:25:55;17.60;;;3.30;;
7845;SDS011;3968;51.424;6.788;2022-09-17T06:28:21;16.00;;;3.90;;
7845;SDS011;3968;51.424;6.788;2022-09-17T06:30:48;18.97;;;3.73;;
7845;SDS011;3968;51.424;6.788;2022-09-17T06:33:14;16.70;;;4.17;;
7845;SDS011;3968;51.424;6.788;2022-09-17T06:35:39;18.70;;;5.70;;
7845;SDS011;3968;51.424;6.788;2022-09-17T06:38:06;21.73;;;7.43;;
7845;SDS011;3968;51.424;6.788;2022-09-17T06:40:32;22.80;;;10.30;;
7845;SDS011;3968;51.424;6.788;2022-09-17T06:42:58;22.80;;;8.33;;
7845;SDS011;3968;51.424;6.788;2022-09-17T06:45:24;19.47;;;8.47;;
7845;SDS011;3968;51.424;6.788;2022-09-17T06:47:50;17.67;;;6.40;;
7845;SDS011;3968;51.424;6.788;2022-09-17T06:50:16;15.93;;;3.90;;
7845;SDS011;3968;51.424;6.788;2022-09-17T06:52:49;7.77;;;3.70;;
7845;SDS011;3968;51.424;6.788;2022-09-17T06:55:15;14.37;;;3.70;;
7845;SDS011;3968;51.424;6.788;2022-09-17T06:57:41;15.07;;;3.63;;
7845;SDS011;3968;51.424;6.788;2022-09-17T07:00:07;13.90;;;3.73;;
7845;SDS011;3968;51.424;6.788;2022-09-17T07:02:34;16.90;;;5.10;;
7845;SDS011;3968;51.424;6.788;2022-09-17T07:04:59;17.57;;;5.60;;
7845;SDS011;3968;51.424;6.788;2022-09-17T07:07:25;17.97;;;6.43;;
7845;SDS011;3968;51.424;6.788;2022-09-17T07:09:51;23.03;;;7.20;;
7845;SDS011;3968;51.424;6.788;2022-09-17T07:12:20;31.17;;;7.27;;
7845;SDS011;3968;51.424;6.788;2022-09-17T07:14:46;29.70;;;7.23;;
7845;SDS011;3968;51.424;6.788;2022-09-17T07:17:12;32.93;;;7.47;;
7845;SDS011;3968;51.424;6.788;2022-09-17T07:19:38;21.73;;;6.73;;
7845;SDS011;3968;51.424;6.788;2022-09-17T07:22:04;18.87;;;5.33;;
7845;SDS011;3968;51.424;6.788;2022-09-17T07:24:29;15.10;;;4.80;;
7845;SDS011;3968;51.424;6.788;2022-09-17T07:26:55;9.77;;;3.00;;
7845;SDS011;3968;51.424;6.788;2022-09-17T07:29:21;10.20;;;2.70;;
7845;SDS011;3968;51.424;6.788;2022-09-17T07:31:50;11.67;;;3.67;;
7845;SDS011;3968;51.424;6.788;2022-09-17T07:34:16;10.10;;;3.10;;
7845;SDS011;3968;51.424;6.788;2022-09-17T07:36:43;7.83;;;2.53;;
7845;SDS011;3968;51.424;6.788;2022-09-17T07:39:08;12.33;;;2.97;;
7845;SDS011;3968;51.424;6.788;2022-09-17T07:41:35;8.97;;;2.60;;
7845;SDS011;3968;51.424;6.788;2022-09-17T07:44:01;8.87;;;2.93;;
7845;SDS011;3968;51.424;6.788;2022-09-17T07:46:27;7.77;;;2.17;;
7845;SDS011;3968;51.424;6.788;2022-09-17T07:48:54;10.47;;;2.47;;
7845;SDS011;3968;51.424;6.788;2022-09-17T07:51:20;7.13;;;2.50;;
7845;SDS011;3968;51.424;6.788;2022-09-17T07:53:51;8.40;;;2.47;;
7845;SDS011;3968;51.424;6.788;2022-09-17T07:56:18;15.60;;;3.57;;
7845;SDS011;3968;51.424;6.788;2022-09-17T07:58:43;11.00;;;2.73;;
7845;SDS011;3968;51.424;6.788;2022-09-17T08:01:10;10.20;;;2.70;;
7845;SDS011;3968;51.424;6.788;2022-09-17T08:03:37;8.57;;;2.70;;
7845;SDS011;3968;51.424;6.788;2022-09-17T08:06:08;11.10;;;2.43;;
7845;SDS011;3968;51.424;6.788;2022-09-17T08:08:36;14.57;;;3.10;;
7845;SDS011;3968;51.424;6.788;2022-09-17T08:11:02;9.60;;;2.17;;
7845;SDS011;3968;51.424;6.788;2022-09-17T08:13:30;11.03;;;2.90;;
7845;SDS011;3968;51.424;6.788;2022-09-17T08:15:59;14.27;;;2.67;;
7845;SDS011;3968;51.424;6.788;2022-09-17T08:18:26;8.73;;;2.57;;
7845;SDS011;3968;51.424;6.788;2022-09-17T08:20:55;10.40;;;2.00;;
7845;SDS011;3968;51.424;6.788;2022-09-17T08:23:22;12.67;;;2.77;;
7845;SDS011;3968;51.424;6.788;2022-09-17T08:25:52;8.00;;;2.80;;
7845;SDS011;3968;51.424;6.788;2022-09-17T08:28:18;11.30;;;2.97;;
7845;SDS011;3968;51.424;6.788;2022-09-17T08:30:45;8.27;;;2.07;;
7845;SDS011;3968;51.424;6.788;2022-09-17T08:33:12;8.47;;;2.10;;
7845;SDS011;3968;51.424;6.788;2022-09-17T08:35:38;10.77;;;2.30;;
7845;SDS011;3968;51.424;6.788;2022-09-17T08:38:03;12.63;;;3.37;;
7845;SDS011;3968;51.424;6.788;2022-09-17T08:40:29;6.67;;;2.50;;
7845;SDS011;3968;51.424;6.788;2022-09-17T08:42:55;10.50;;;2.23;;
7845;SDS011;3968;51.424;6.788;2022-09-17T08:45:26;9.23;;;2.43;;
7845;SDS011;3968;51.424;6.788;2022-09-17T08:48:02;9.03;;;2.03;;
7845;SDS011;3968;51.424;6.788;2022-09-17T08:50:36;5.83;;;2.30;;
7845;SDS011;3968;51.424;6.788;2022-09-17T08:53:21;4.35;;;1.77;;
7845;SDS011;3968;51.424;6.788;2022-09-17T09:06:12;6.35;;;1.92;;
7845;SDS011;3968;51.424;6.788;2022-09-17T09:08:46;5.43;;;1.70;;
7845;SDS011;3968;51.424;6.788;2022-09-17T09:11:58;7.72;;;2.28;;
7845;SDS011;3968;51.424;6.788;2022-09-17T09:14:30;3.08;;;1.80;;
7845;SDS011;3968;51.424;6.788;2022-09-17T09:17:02;4.05;;;1.80;;
7845;SDS011;3968;51.424;6.788;2022-09-17T09:19:41;8.63;;;2.40;;
7845;SDS011;3968;51.424;6.788;2022-09-17T09:25:01;5.32;;;1.92;;
7845;SDS011;3968;51.424;6.788;2022-09-17T09:27:32;5.70;;;1.98;;
7845;SDS011;3968;51.424;6.788;2022-09-17T09:30:11;6.05;;;1.98;;
7845;SDS011;3968;51.424;6.788;2022-09-17T09:35:33;8.50;;;2.47;;
7845;SDS011;3968;51.424;6.788;2022-09-17T09:40:56;7.55;;;1.92;;
7845;SDS011;3968;51.424;6.788;2022-09-17T09:54:53;6.60;;;2.60;;
7845;SDS011;3968;51.424;6.788;2022-09-17T09:57:44;7.63;;;1.60;;
7845;SDS011;3968;51.424;6.788;2022-09-17T10:00:26;7.32;;;2.03;;
7845;SDS011;3968;51.424;6.788;2022-09-17T10:08:18;7.57;;;2.08;;
7845;SDS011;3968;51.424;6.788;2022-09-17T10:13:30;6.70;;;2.60;;
7845;SDS011;3968;51.424;6.788;2022-09-17T10:16:18;6.38;;;1.83;;
7845;SDS011;3968;51.424;6.788;2022-09-17T10:18:47;7.68;;;2.28;;
7845;SDS011;3968;51.424;6.788;2022-09-17T10:21:22;6.15;;;1.35;;
7845;SDS011;3968;51.424;6.788;2022-09-17T10:23:56;9.85;;;1.60;;
7845;SDS011;3968;51.424;6.788;2022-09-17T10:26:23;4.18;;;1.73;;
7845;SDS011;3968;51.424;6.788;2022-09-17T10:28:52;3.65;;;1.65;;
7845;SDS011;3968;51.424;6.788;2022-09-17T10:31:21;9.35;;;1.98;;
7845;SDS011;3968;51.424;6.788;2022-09-17T10:33:51;4.20;;;1.58;;
7845;SDS011;3968;51.424;6.788;2022-09-17T10:36:40;7.93;;;2.20;;
7845;SDS011;3968;51.424;6.788;2022-09-17T10:44:21;5.22;;;1.60;;
7845;SDS011;3968;51.424;6.788;2022-09-17T10:46:48;4.53;;;1.70;;
7845;SDS011;3968;51.424;6.788;2022-09-17T10:49:37;4.30;;;1.60;;
7845;SDS011;3968;51.424;6.788;2022-09-17T10:52:39;5.50;;;1.88;;
7845;SDS011;3968;51.424;6.788;2022-09-17T10:55:30;4.25;;;1.60;;
7845;SDS011;3968;51.424;6.788;2022-09-17T11:13:33;5.53;;;3.35;;
7845;SDS011;3968;51.424;6.788;2022-09-17T11:16:17;4.63;;;1.73;;
7845;SDS011;3968;51.424;6.788;2022-09-17T11:21:42;9.13;;;2.85;;
7845;SDS011;3968;51.424;6.788;2022-09-17T11:24:29;7.60;;;2.90;;
7845;SDS011;3968;51.424;6.788;2022-09-17T11:30:03;10.23;;;3.72;;
7845;SDS011;3968;51.424;6.788;2022-09-17T11:37:41;6.63;;;3.42;;
7845;SDS011;3968;51.424;6.788;2022-09-17T11:49:04;4.27;;;1.90;;
7845;SDS011;3968;51.424;6.788;2022-09-17T11:51:57;4.90;;;1.80;;
7845;SDS011;3968;51.424;6.788;2022-09-17T11:57:29;5.40;;;1.80;;
7845;SDS011;3968;51.424;6.788;2022-09-17T12:03:39;4.33;;;2.40;;
7845;SDS011;3968;51.424;6.788;2022-09-17T12:05:45;3.63;;;1.93;;
7845;SDS011;3968;51.424;6.788;2022-09-17T12:08:23;3.97;;;1.40;;
7845;SDS011;3968;51.424;6.788;2022-09-17T12:13:44;4.27;;;1.97;;
7845;SDS011;3968;51.424;6.788;2022-09-17T12:16:26;5.83;;;2.27;;
7845;SDS011;3968;51.424;6.788;2022-09-17T12:21:44;4.90;;;1.70;;
7845;SDS011;3968;51.424;6.788;2022-09-17T12:24:20;3.13;;;1.10;;
7845;SDS011;3968;51.424;6.788;2022-09-17T12:26:50;3.63;;;1.90;;
7845;SDS011;3968;51.424;6.788;2022-09-17T12:55:17;6.03;;;2.03;;
7845;SDS011;3968;51.424;6.788;2022-09-17T13:00:32;4.10;;;2.30;;
7845;SDS011;3968;51.424;6.788;2022-09-17T13:03:17;4.70;;;2.10;;
7845;SDS011;3968;51.424;6.788;2022-09-17T13:05:59;10.80;;;3.53;;
7845;SDS011;3968;51.424;6.788;2022-09-17T13:11:54;5.63;;;2.70;;
7845;SDS011;3968;51.424;6.788;2022-09-17T13:14:47;6.65;;;2.53;;
7845;SDS011;3968;51.424;6.788;2022-09-17T13:17:30;3.88;;;2.22;;
7845;SDS011;3968;51.424;6.788;2022-09-17T13:20:29;5.73;;;2.73;;
7845;SDS011;3968;51.424;6.788;2022-09-17T13:22:57;6.72;;;2.67;;
7845;SDS011;3968;51.424;6.788;2022-09-17T13:25:23;6.13;;;2.40;;
7845;SDS011;3968;51.424;6.788;2022-09-17T13:27:50;6.30;;;2.30;;
7845;SDS011;3968;51.424;6.788;2022-09-17T13:30:53;12.70;;;8.30;;
7845;SDS011;3968;51.424;6.788;2022-09-17T13:38:58;10.90;;;5.63;;
7845;SDS011;3968;51.424;6.788;2022-09-17T13:41:27;8.60;;;4.82;;
7845;SDS011;3968;51.424;6.788;2022-09-17T13:43:56;16.42;;;5.82;;
7845;SDS011;3968;51.424;6.788;2022-09-17T13:46:22;12.40;;;5.73;;
7845;SDS011;3968;51.424;6.788;2022-09-17T13:49:14;11.70;;;2.07;;
7845;SDS011;3968;51.424;6.788;2022-09-17T13:54:07;8.63;;;1.97;;
7845;SDS011;3968;51.424;6.788;2022-09-17T13:56:36;6.83;;;1.87;;
7845;SDS011;3968;51.424;6.788;2022-09-17T13:59:08;5.60;;;1.17;;
7845;SDS011;3968;51.424;6.788;2022-09-17T14:21:37;5.77;;;1.90;;
7845;SDS011;3968;51.424;6.788;2022-09-17T14:23:45;8.77;;;2.40;;
7845;SDS011;3968;51.424;6.788;2022-09-17T14:29:19;7.37;;;2.00;;
7845;SDS011;3968;51.424;6.788;2022-09-17T14:31:46;6.53;;;2.70;;
7845;SDS011;3968;51.424;6.788;2022-09-17T14:34:18;10.00;;;5.80;;
7845;SDS011;3968;51.424;6.788;2022-09-17T14:36:45;7.20;;;2.93;;
7845;SDS011;3968;51.424;6.788;2022-09-17T14:39:14;7.80;;;2.50;;
7845;SDS011;3968;51.424;6.788;2022-09-17T14:41:46;7.40;;;2.20;;
7845;SDS011;3968;51.424;6.788;2022-09-17T14:44:17;10.10;;;2.20;;
7845;SDS011;3968;51.424;6.788;2022-09-17T14:46:47;15.20;;;8.10;;
7845;SDS011;3968;51.424;6.788;2022-09-17T14:49:28;11.87;;;4.50;;
7845;SDS011;3968;51.424;6.788;2022-09-17T14:51:57;14.77;;;9.07;;
7845;SDS011;3968;51.424;6.788;2022-09-17T15:02:20;6.20;;;2.30;;
7845;SDS011;3968;51.424;6.788;2022-09-17T15:08:15;6.90;;;2.40;;
7845;SDS011;3968;51.424;6.788;2022-09-17T15:11:00;9.07;;;3.60;;
7845;SDS011;3968;51.424;6.788;2022-09-17T15:13:28;6.93;;;2.23;;
7845;SDS011;3968;51.424;6.788;2022-09-17T15:16:09;10.23;;;3.87;;
7845;SDS011;3968;51.424;6.788;2022-09-17T15:23:53;8.83;;;2.10;;
7845;SDS011;3968;51.424;6.788;2022-09-17T15:26:26;4.70;;;2.17;;
7845;SDS011;3968;51.424;6.788;2022-09-17T15:28:58;7.10;;;2.20;;
7845;SDS011;3968;51.424;6.788;2022-09-17T15:31:25;7.27;;;3.20;;
7845;SDS011;3968;51.424;6.788;2022-09-17T15:33:53;6.70;;;1.83;;
7845;SDS011;3968;51.424;6.788;2022-09-17T15:38:45;9.03;;;2.30;;
7845;SDS011;3968;51.424;6.788;2022-09-17T15:41:17;4.93;;;2.17;;
7845;SDS011;3968;51.424;6.788;2022-09-17T15:43:47;5.90;;;2.73;;
7845;SDS011;3968;51.424;6.788;2022-09-17T15:46:18;6.97;;;2.80;;
7845;SDS011;3968;51.424;6.788;2022-09-17T15:49:02;8.93;;;3.60;;
7845;SDS011;3968;51.424;6.788;2022-09-17T15:51:48;5.33;;;2.20;;
7845;SDS011;3968;51.424;6.788;2022-09-17T15:54:27;7.73;;;2.40;;
7845;SDS011;3968;51.424;6.788;2022-09-17T15:56:59;7.65;;;2.85;;
7845;SDS011;3968;51.424;6.788;2022-09-17T15:59:26;8.63;;;3.80;;
7845;SDS011;3968;51.424;6.788;2022-09-17T16:01:54;6.33;;;2.57;;
7845;SDS011;3968;51.424;6.788;2022-09-17T16:04:28;14.77;;;6.97;;
7845;SDS011;3968;51.424;6.788;2022-09-17T16:12:17;6.57;;;2.97;;
7845;SDS011;3968;51.424;6.788;2022-09-17T16:14:45;5.33;;;2.53;;
7845;SDS011;3968;51.424;6.788;2022-09-17T16:19:57;5.63;;;3.00;;
7845;SDS011;3968;51.424;6.788;2022-09-17T16:22:23;3.10;;;2.03;;
7845;SDS011;3968;51.424;6.788;2022-09-17T16:24:50;5.53;;;2.90;;
7845;SDS011;3968;51.424;6.788;2022-09-17T16:27:20;3.43;;;1.60;;
7845;SDS011;3968;51.424;6.788;2022-09-17T16:29:49;4.40;;;1.90;;
7845;SDS011;3968;51.424;6.788;2022-09-17T16:32:16;7.37;;;2.10;;
7845;SDS011;3968;51.424;6.788;2022-09-17T16:34:42;4.63;;;2.30;;
7845;SDS011;3968;51.424;6.788;2022-09-17T16:37:08;4.70;;;2.20;;
7845;SDS011;3968;51.424;6.788;2022-09-17T16:39:35;10.63;;;2.93;;
7845;SDS011;3968;51.424;6.788;2022-09-17T16:42:00;11.03;;;3.73;;
7845;SDS011;3968;51.424;6.788;2022-09-17T16:44:26;7.10;;;2.53;;
7845;SDS011;3968;51.424;6.788;2022-09-17T16:46:52;4.50;;;1.57;;
7845;SDS011;3968;51.424;6.788;2022-09-17T16:49:17;14.83;;;3.97;;
7845;SDS011;3968;51.424;6.788;2022-09-17T16:51:43;8.03;;;3.67;;
7845;SDS011;3968;51.424;6.788;2022-09-17T16:54:08;6.87;;;2.30;;
7845;SDS011;3968;51.424;6.788;2022-09-17T16:56:34;9.00;;;2.70;;
7845;SDS011;3968;51.424;6.788;2022-09-17T16:59:00;8.03;;;2.23;;
7845;SDS011;3968;51.424;6.788;2022-09-17T17:01:25;8.83;;;2.40;;
7845;SDS011;3968;51.424;6.788;2022-09-17T17:03:51;7.97;;;2.70;;
7845;SDS011;3968;51.424;6.788;2022-09-17T17:06:20;8.87;;;2.80;;
7845;SDS011;3968;51.424;6.788;2022-09-17T17:08:46;5.67;;;2.40;;
7845;SDS011;3968;51.424;6.788;2022-09-17T17:11:12;11.27;;;2.30;;
7845;SDS011;3968;51.424;6.788;2022-09-17T17:13:38;11.03;;;2.50;;
7845;SDS011;3968;51.424;6.788;2022-09-17T17:16:06;7.73;;;1.97;;
7845;SDS011;3968;51.424;6.788;2022-09-17T17:18:33;9.57;;;3.03;;
7845;SDS011;3968;51.424;6.788;2022-09-17T17:21:05;13.67;;;2.60;;
7845;SDS011;3968;51.424;6.788;2022-09-17T17:23:35;10.13;;;2.53;;
7845;SDS011;3968;51.424;6.788;2022-09-17T17:26:01;11.47;;;4.10;;
7845;SDS011;3968;51.424;6.788;2022-09-17T17:28:31;9.40;;;4.90;;
7845;SDS011;3968;51.424;6.788;2022-09-17T17:30:58;10.73;;;3.47;;
7845;SDS011;3968;51.424;6.788;2022-09-17T17:33:27;10.67;;;3.67;;
7845;SDS011;3968;51.424;6.788;2022-09-17T17:35:54;13.43;;;4.53;;
7845;SDS011;3968;51.424;6.788;2022-09-17T17:38:19;11.97;;;3.43;;
7845;SDS011;3968;51.424;6.788;2022-09-17T17:40:45;14.47;;;4.30;;
7845;SDS011;3968;51.424;6.788;2022-09-17T17:43:11;11.77;;;3.20;;
7845;SDS011;3968;51.424;6.788;2022-09-17T17:45:38;12.17;;;4.27;;
7845;SDS011;3968;51.424;6.788;2022-09-17T17:48:03;15.07;;;3.83;;
7845;SDS011;3968;51.424;6.788;2022-09-17T17:50:30;9.77;;;4.03;;
7845;SDS011;3968;51.424;6.788;2022-09-17T17:52:56;11.60;;;4.00;;
7845;SDS011;3968;51.424;6.788;2022-09-17T17:55:22;15.30;;;4.20;;
7845;SDS011;3968;51.424;6.788;2022-09-17T17:57:53;10.50;;;3.47;;
7845;SDS011;3968;51.424;6.788;2022-09-17T18:00:22;22.90;;;9.40;;
7845;SDS011;3968;51.424;6.788;2022-09-17T18:02:48;17.20;;;6.70;;
7845;SDS011;3968;51.424;6.788;2022-09-17T18:05:15;11.47;;;3.87;;
7845;SDS011;3968;51.424;6.788;2022-09-17T18:07:40;10.47;;;3.23;;
7845;SDS011;3968;51.424;6.788;2022-09-17T18:10:06;16.87;;;7.23;;
7845;SDS011;3968;51.424;6.788;2022-09-17T18:12:32;15.47;;;4.10;;
7845;SDS011;3968;51.424;6.788;2022-09-17T18:14:58;10.67;;;3.03;;
7845;SDS011;3968;51.424;6.788;2022-09-17T18:17:23;12.67;;;4.33;;
7845;SDS011;3968;51.424;6.788;2022-09-17T18:19:49;17.03;;;6.90;;
7845;SDS011;3968;51.424;6.788;2022-09-17T18:22:20;10.30;;;3.40;;
7845;SDS011;3968;51.424;6.788;2022-09-17T18:24:46;10.30;;;3.37;;
7845;SDS011;3968;51.424;6.788;2022-09-17T18:27:12;17.60;;;4.20;;
7845;SDS011;3968;51.424;6.788;2022-09-17T18:29:37;11.17;;;2.37;;
7845;SDS011;3968;51.424;6.788;2022-09-17T18:32:03;10.37;;;4.17;;
7845;SDS011;3968;51.424;6.788;2022-09-17T18:34:29;14.60;;;4.23;;
7845;SDS011;3968;51.424;6.788;2022-09-17T18:36:56;12.77;;;6.50;;
7845;SDS011;3968;51.424;6.788;2022-09-17T18:39:22;10.23;;;2.70;;
7845;SDS011;3968;51.424;6.788;2022-09-17T18:41:48;10.97;;;4.73;;
7845;SDS011;3968;51.424;6.788;2022-09-17T18:44:17;17.10;;;3.00;;
7845;SDS011;3968;51.424;6.788;2022-09-17T18:46:45;14.63;;;2.70;;
7845;SDS011;3968;51.424;6.788;2022-09-17T18:49:13;7.43;;;2.63;;
7845;SDS011;3968;51.424;6.788;2022-09-17T18:51:39;18.70;;;7.83;;
7845;SDS011;3968;51.424;6.788;2022-09-17T18:54:05;27.30;;;15.53;;
7845;SDS011;3968;51.424;6.788;2022-09-17T18:56:31;19.13;;;9.30;;
7845;SDS011;3968;51.424;6.788;2022-09-17T18:58:57;21.73;;;6.07;;
7845;SDS011;3968;51.424;6.788;2022-09-17T19:01:24;16.17;;;5.73;;
7845;SDS011;3968;51.424;6.788;2022-09-17T19:03:52;11.10;;;2.97;;